Time;durP1;ratioP1;P1;durP2;ratioP2;P2;SDS_P1;SDS_P2;PMS_P1;PMS_P2;Temp;Humidity;BMP_temperature;BMP_pressure;BME280_temperature;BME280_humidity;BME280_pressure;Samples;Min_cycle;Max_cycle;Signal;HPM_P1;HPM_P2
2022/10/08 00:01:17;;;;;;;;;;;10.00;99.90;;;;;;5054352;28;20087;-65
2022/10/08 00:03:46;;;;;;;7.10;2.08;;;9.90;99.90;;;;;;5056208;28;20395;-66
2022/10/08 00:06:14;;;;;;;11.23;2.53;;;9.90;99.90;;;;;;5056739;28;20048;-66
2022/10/08 00:08:42;;;;;;;11.63;2.72;;;10.00;99.90;;;;;;5059945;28;20485;-66
2022/10/08 00:11:11;;;;;;;10.82;2.95;;;9.90;99.90;;;;;;5058096;28;20518;-66
2022/10/08 00:13:41;;;;;;;14.30;2.80;;;9.90;99.90;;;;;;5059468;28;20305;-65
2022/10/08 00:16:06;;;;;;;8.35;2.53;;;9.90;99.90;;;;;;5058976;28;20052;-67
2022/10/08 00:18:32;;;;;;;;;;;10.00;99.90;;;;;;5047852;28;20040;-66
2022/10/08 00:21:08;;;;;;;11.75;3.15;;;9.90;99.90;;;;;;5045479;28;19917;-66
2022/10/08 00:23:34;;;;;;;12.82;2.47;;;10.00;99.90;;;;;;5044505;28;20476;-66
2022/10/08 00:26:06;;;;;;;;;;;9.90;99.90;;;;;;5044875;28;20127;-66
2022/10/08 00:28:33;;;;;;;14.43;3.13;;;9.90;99.90;;;;;;5047116;28;19916;-65
2022/10/08 00:31:06;;;;;;;16.20;3.33;;;9.90;99.90;;;;;;5042146;28;20440;-66
2022/10/08 00:33:34;;;;;;;15.20;2.90;;;9.90;99.90;;;;;;5045951;28;20505;-66
2022/10/08 00:36:01;;;;;;;10.70;2.70;;;9.90;99.90;;;;;;5045190;28;20121;-66
2022/10/08 00:38:27;;;;;;;14.13;2.88;;;9.90;99.90;;;;;;5045780;28;20041;-65
2022/10/08 00:40:53;;;;;;;;;;;9.80;99.90;;;;;;5045379;28;20048;-66
2022/10/08 00:43:35;;;;;;;13.70;3.40;;;9.80;99.90;;;;;;5044641;28;19978;-66
2022/10/08 00:46:02;;;;;;;18.55;2.80;;;9.80;99.90;;;;;;5045455;28;20696;-67
2022/10/08 00:48:28;;;;;;;14.30;3.53;;;9.80;99.90;;;;;;5046298;28;20048;-66
2022/10/08 00:50:54;;;;;;;11.68;3.25;;;9.80;99.90;;;;;;5044860;28;20060;-66
2022/10/08 00:53:20;;;;;;;;;;;9.70;99.90;;;;;;5040340;28;20037;-66
2022/10/08 00:55:46;;;;;;;14.02;3.10;;;9.70;99.90;;;;;;5043193;28;19920;-66
2022/10/08 00:58:14;;;;;;;;;;;9.70;99.90;;;;;;5044908;28;20044;-66
2022/10/08 01:00:40;;;;;;;13.15;2.90;;;9.80;99.90;;;;;;5044006;28;20011;-66
2022/10/08 01:03:05;;;;;;;;;;;9.70;99.90;;;;;;5044785;28;20166;-65
2022/10/08 01:06:02;;;;;;;23.10;3.75;;;9.70;99.90;;;;;;5038346;28;19925;-66
2022/10/08 01:08:34;;;;;;;16.17;4.00;;;9.70;99.90;;;;;;5039127;28;20529;-66
2022/10/08 01:11:08;;;;;;;11.93;2.88;;;9.70;99.90;;;;;;5044220;28;20045;-66
2022/10/08 01:13:56;;;;;;;15.63;2.97;;;9.70;99.90;;;;;;5043183;28;20170;-66
2022/10/08 01:16:34;;;;;;;13.18;3.38;;;9.70;99.90;;;;;;5039153;28;20059;-66
2022/10/08 01:19:22;;;;;;;24.52;4.20;;;9.70;99.90;;;;;;5042856;28;21401;-65
2022/10/08 01:22:09;;;;;;;20.05;2.97;;;9.70;99.90;;;;;;5043435;28;20037;-66
2022/10/08 01:27:35;;;;;;;14.35;3.08;;;9.70;99.90;;;;;;5041442;28;20055;-68
2022/10/08 01:30:05;;;;;;;13.35;3.08;;;9.70;99.90;;;;;;5042589;28;20452;-65
2022/10/08 01:32:40;;;;;;;8.93;2.40;;;9.70;99.90;;;;;;5039767;28;20115;-65
2022/10/08 01:35:15;;;;;;;10.48;2.40;;;9.70;99.90;;;;;;5044752;28;20041;-66
2022/10/08 01:37:42;;;;;;;9.52;2.47;;;9.70;99.90;;;;;;5043069;28;20064;-67
2022/10/08 01:40:13;;;;;;;19.48;3.10;;;9.70;99.90;;;;;;5034501;28;20730;-65
2022/10/08 01:42:40;;;;;;;10.93;2.95;;;9.70;99.90;;;;;;5042488;28;20045;-65
2022/10/08 01:45:14;;;;;;;13.80;2.85;;;9.70;99.90;;;;;;5035680;28;20436;-67
2022/10/08 01:47:43;;;;;;;12.70;2.42;;;9.80;99.90;;;;;;5042685;28;20045;-65
2022/10/08 01:50:31;;;;;;;12.25;3.03;;;9.70;99.90;;;;;;5042323;28;20051;-65
2022/10/08 01:53:11;;;;;;;17.90;3.00;;;9.70;99.90;;;;;;5036654;28;20064;-66
2022/10/08 01:55:47;;;;;;;13.45;2.40;;;9.70;99.90;;;;;;5040220;28;20049;-67
2022/10/08 01:58:24;;;;;;;15.32;2.47;;;9.70;99.90;;;;;;5043532;28;20032;-65
2022/10/08 02:00:53;;;;;;;11.07;3.00;;;9.70;99.90;;;;;;5043321;28;20033;-66
2022/10/08 02:03:18;;;;;;;12.43;2.80;;;9.70;99.90;;;;;;5042169;28;20728;-66
2022/10/08 02:05:47;;;;;;;;;;;9.70;99.90;;;;;;5039548;28;20068;-66
2022/10/08 02:08:13;;;;;;;10.20;2.53;;;9.70;99.90;;;;;;5042293;28;20633;-67
2022/10/08 02:10:39;;;;;;;12.88;2.78;;;9.70;99.90;;;;;;5043520;28;20049;-67
2022/10/08 02:13:06;;;;;;;15.70;2.75;;;9.70;99.90;;;;;;5043634;28;20037;-66
2022/10/08 02:15:38;;;;;;;18.02;2.38;;;9.60;99.90;;;;;;5045149;28;20075;-66
2022/10/08 02:18:17;;;;;;;11.10;2.20;;;9.60;99.90;;;;;;5043336;28;20033;-66
2022/10/08 02:20:49;;;;;;;18.40;2.90;;;9.60;99.90;;;;;;5043685;28;21770;-66
2022/10/08 02:23:28;;;;;;;14.30;2.67;;;9.60;99.90;;;;;;5038706;28;20029;-66
2022/10/08 02:25:58;;;;;;;16.30;2.70;;;9.60;99.90;;;;;;5040590;28;20044;-65
2022/10/08 02:28:34;;;;;;;15.65;2.92;;;9.60;99.90;;;;;;5040352;28;20069;-67
2022/10/08 02:31:16;;;;;;;13.15;2.90;;;9.60;99.90;;;;;;5041657;28;20516;-66
2022/10/08 02:33:50;;;;;;;18.83;2.85;;;9.60;99.90;;;;;;5040806;28;20081;-65
2022/10/08 02:36:21;;;;;;;13.55;2.88;;;9.60;99.90;;;;;;5036941;28;20049;-65
2022/10/08 02:38:51;;;;;;;18.90;2.95;;;9.70;99.90;;;;;;5042759;28;20041;-67
2022/10/08 02:41:20;;;;;;;12.32;2.65;;;9.70;99.90;;;;;;5035405;28;20044;-66
2022/10/08 02:43:48;;;;;;;17.77;3.13;;;9.60;99.90;;;;;;5043420;28;20045;-66
2022/10/08 02:46:22;;;;;;;19.77;3.42;;;9.70;99.90;;;;;;5043514;28;20401;-66
2022/10/08 02:49:04;;;;;;;17.90;3.38;;;9.70;99.90;;;;;;5043693;28;20136;-66
2022/10/08 02:51:34;;;;;;;16.13;3.28;;;9.60;99.90;;;;;;5036139;28;20049;-66
2022/10/08 02:54:03;;;;;;;16.73;2.85;;;9.60;99.90;;;;;;5042866;28;20497;-66
2022/10/08 02:57:00;;;;;;;16.40;2.97;;;9.60;99.90;;;;;;5043123;28;20083;-65
2022/10/08 02:59:26;;;;;;;17.30;3.28;;;9.70;99.90;;;;;;5039627;28;20044;-67
2022/10/08 03:01:58;;;;;;;11.07;2.90;;;9.60;99.90;;;;;;5040942;28;20060;-66
2022/10/08 03:04:39;;;;;;;14.73;3.08;;;9.70;99.90;;;;;;5041956;28;20552;-66
2022/10/08 03:07:06;;;;;;;15.27;3.30;;;9.70;99.90;;;;;;5037360;28;20520;-65
2022/10/08 03:09:36;;;;;;;15.52;2.75;;;9.70;99.90;;;;;;5044142;28;20045;-66
2022/10/08 03:12:02;;;;;;;10.80;2.60;;;9.60;99.90;;;;;;5042924;28;20059;-67
2022/10/08 03:14:29;;;;;;;18.83;3.30;;;9.60;99.90;;;;;;5041243;28;20045;-67
2022/10/08 03:16:55;;;;;;;14.50;3.05;;;9.60;99.90;;;;;;5042522;28;20055;-66
2022/10/08 03:19:21;;;;;;;;;;;9.60;99.90;;;;;;5044019;28;20044;-65
2022/10/08 03:21:51;;;;;;;15.65;2.90;;;9.60;99.90;;;;;;5042132;28;19920;-67
2022/10/08 03:24:16;;;;;;;16.65;3.00;;;9.60;99.90;;;;;;5043209;28;20793;-65
2022/10/08 03:26:42;;;;;;;;;;;9.60;99.90;;;;;;5042897;28;20076;-66
2022/10/08 03:29:09;;;;;;;17.23;2.78;;;9.60;99.90;;;;;;5042438;28;20633;-66
2022/10/08 03:31:35;;;;;;;12.80;3.10;;;9.60;99.90;;;;;;5029810;28;20080;-67
2022/10/08 03:34:00;;;;;;;;;;;9.60;99.90;;;;;;5022148;28;20073;-66
2022/10/08 03:36:27;;;;;;;7.20;2.47;;;9.60;99.90;;;;;;5022651;28;20656;-66
2022/10/08 03:38:52;;;;;;;11.02;2.60;;;9.60;99.90;;;;;;5022019;28;20049;-66
2022/10/08 03:41:18;;;;;;;;;;;9.60;99.90;;;;;;5023385;28;20436;-67
2022/10/08 03:43:44;;;;;;;15.23;2.85;;;9.60;99.90;;;;;;5021725;28;19987;-67
2022/10/08 03:46:10;;;;;;;;;;;9.60;99.90;;;;;;5022760;28;20041;-65
2022/10/08 03:48:36;;;;;;;8.85;2.20;;;9.60;99.90;;;;;;5024093;28;19932;-66
2022/10/08 03:51:04;;;;;;;;;;;9.60;99.90;;;;;;5022863;28;20359;-67
2022/10/08 03:53:35;;;;;;;12.27;2.60;;;9.60;99.90;;;;;;5023565;28;19924;-66
2022/10/08 03:56:02;;;;;;;8.45;2.55;;;9.60;99.90;;;;;;5026216;28;20048;-66
2022/10/08 03:58:28;;;;;;;14.52;2.63;;;9.60;99.90;;;;;;5025376;28;20448;-66
2022/10/08 04:01:01;;;;;;;;;;;9.60;99.90;;;;;;5030777;28;20115;-66
2022/10/08 04:03:28;;;;;;;12.68;2.85;;;9.60;99.90;;;;;;5043352;28;19927;-65
2022/10/08 04:05:55;;;;;;;15.77;2.92;;;9.60;99.90;;;;;;5042805;28;20127;-66
2022/10/08 04:08:21;;;;;;;13.30;2.63;;;9.60;99.90;;;;;;5038018;28;20731;-66
2022/10/08 04:10:46;;;;;;;;;;;9.70;99.90;;;;;;5043208;28;21008;-65
2022/10/08 04:13:13;;;;;;;6.40;2.03;;;9.70;99.90;;;;;;5045687;28;20522;-66
2022/10/08 04:15:39;;;;;;;14.02;2.35;;;9.60;99.90;;;;;;5046078;28;20124;-66
2022/10/08 04:18:06;;;;;;;;;;;9.60;99.90;;;;;;5028904;28;20490;-66
2022/10/08 04:20:31;;;;;;;9.90;2.53;;;9.70;99.90;;;;;;5040787;28;19920;-66
2022/10/08 04:22:57;;;;;;;;;;;9.60;99.90;;;;;;5042647;28;20067;-67
2022/10/08 04:25:23;;;;;;;11.77;2.47;;;9.60;99.90;;;;;;5042173;28;20011;-67
2022/10/08 04:27:49;;;;;;;;;;;9.60;99.90;;;;;;5039292;28;20421;-65
2022/10/08 04:30:15;;;;;;;10.07;2.65;;;9.70;99.90;;;;;;5045763;28;20101;-66
2022/10/08 04:32:42;;;;;;;8.68;2.45;;;9.70;99.90;;;;;;5044126;28;20119;-66
2022/10/08 04:35:08;;;;;;;17.23;2.72;;;9.70;99.90;;;;;;5045253;28;20032;-66
2022/10/08 04:37:34;;;;;;;14.48;2.88;;;9.70;99.90;;;;;;5042023;28;20102;-67
2022/10/08 04:39:59;;;;;;;;;;;9.70;99.90;;;;;;5046542;28;20045;-65
2022/10/08 04:42:25;;;;;;;8.80;2.30;;;9.70;99.90;;;;;;5043654;28;19921;-67
2022/10/08 04:44:50;;;;;;;;;;;9.70;99.90;;;;;;5045364;28;20390;-66
2022/10/08 04:47:16;;;;;;;10.32;2.53;;;9.70;99.90;;;;;;5037805;28;20024;-66
2022/10/08 04:49:42;;;;;;;;;;;9.70;99.90;;;;;;5036380;28;20570;-66
2022/10/08 04:52:08;;;;;;;11.98;2.53;;;9.80;99.90;;;;;;5043157;28;20023;-62
2022/10/08 04:54:35;;;;;;;11.73;2.40;;;9.80;99.90;;;;;;5043241;28;20041;-62
2022/10/08 04:57:00;;;;;;;12.77;2.97;;;9.80;99.90;;;;;;5043604;28;20052;-63
2022/10/08 04:59:26;;;;;;;;;;;9.80;99.90;;;;;;5045369;28;20032;-60
2022/10/08 05:01:55;;;;;;;13.10;3.67;;;9.80;99.90;;;;;;5041542;28;19917;-66
2022/10/08 05:04:22;;;;;;;9.52;3.05;;;9.80;99.90;;;;;;5043933;28;20055;-67
2022/10/08 05:06:48;;;;;;;16.27;3.63;;;9.80;99.90;;;;;;5034433;28;20098;-66
2022/10/08 05:09:13;;;;;;;;;;;9.80;99.90;;;;;;5040621;28;20041;-67
2022/10/08 05:11:39;;;;;;;19.70;4.40;;;9.80;99.90;;;;;;5043814;28;20548;-64
2022/10/08 05:14:05;;;;;;;;;;;9.90;99.90;;;;;;5045471;28;20048;-68
2022/10/08 05:16:31;;;;;;;12.80;2.85;;;9.90;99.90;;;;;;5041336;28;19925;-68
2022/10/08 05:18:56;;;;;;;13.52;2.40;;;10.00;99.90;;;;;;5044640;28;20045;-65
2022/10/08 05:21:24;;;;;;;;;;;10.00;99.90;;;;;;5044957;28;20040;-65
2022/10/08 05:23:58;;;;;;;21.70;3.75;;;10.00;99.90;;;;;;5042906;28;19920;-65
2022/10/08 05:26:26;;;;;;;14.43;4.03;;;10.00;99.90;;;;;;5044120;28;20080;-64
2022/10/08 05:28:55;;;;;;;13.48;4.40;;;10.00;99.90;;;;;;5041445;28;20041;-64
2022/10/08 05:31:21;;;;;;;16.27;3.45;;;10.00;99.90;;;;;;5042781;28;20112;-67
2022/10/08 05:33:47;;;;;;;18.92;3.85;;;9.90;99.90;;;;;;5044958;28;20164;-66
2022/10/08 05:36:21;;;;;;;;;;;9.90;99.90;;;;;;5044858;28;20127;-65
2022/10/08 05:38:47;;;;;;;17.33;4.78;;;9.90;99.90;;;;;;5035122;28;20543;-66
2022/10/08 05:41:16;;;;;;;16.70;5.10;;;9.90;99.90;;;;;;5043190;28;20076;-65
2022/10/08 05:43:42;;;;;;;17.17;4.72;;;9.90;99.90;;;;;;5043184;28;20040;-66
2022/10/08 05:46:08;;;;;;;;;;;9.90;99.90;;;;;;5045797;28;20041;-64
2022/10/08 05:48:34;;;;;;;19.10;5.53;;;9.90;99.90;;;;;;5043156;28;19916;-66
2022/10/08 05:51:03;;;;;;;;;;;9.90;99.90;;;;;;5041894;28;20037;-65
2022/10/08 05:53:29;;;;;;;20.17;6.97;;;9.90;99.90;;;;;;5043740;28;19928;-66
2022/10/08 05:55:58;;;;;;;;;;;9.90;99.90;;;;;;5044203;28;20029;-65
2022/10/08 05:58:24;;;;;;;16.40;5.55;;;9.80;99.90;;;;;;5036391;28;19916;-67
2022/10/08 06:00:59;;;;;;;;;;;9.80;99.90;;;;;;5039237;28;20065;-66
2022/10/08 06:03:25;;;;;;;18.88;5.30;;;9.80;99.90;;;;;;5039245;28;19923;-63
2022/10/08 06:05:50;;;;;;;;;;;9.80;99.90;;;;;;5041813;28;20076;-63
2022/10/08 06:08:16;;;;;;;12.70;4.07;;;9.80;99.90;;;;;;5042991;28;19951;-63
2022/10/08 06:10:52;;;;;;;;;;;9.80;99.90;;;;;;5043676;28;20033;-66
2022/10/08 06:13:19;;;;;;;10.35;4.35;;;9.80;99.90;;;;;;5041512;28;19920;-66
2022/10/08 06:15:55;;;;;;;9.60;3.70;;;9.80;99.90;;;;;;5042989;28;20173;-66
2022/10/08 06:18:21;;;;;;;7.22;3.67;;;9.80;99.90;;;;;;5033219;28;20679;-66
2022/10/08 06:20:46;;;;;;;11.82;4.32;;;9.80;99.90;;;;;;5044154;28;20091;-64
2022/10/08 06:23:12;;;;;;;;;;;9.80;99.90;;;;;;5036616;28;20500;-64
2022/10/08 06:25:38;;;;;;;7.72;3.20;;;9.70;99.90;;;;;;5044097;28;20332;-64
2022/10/08 06:28:03;;;;;;;;;;;9.70;99.90;;;;;;5044877;28;20072;-65
2022/10/08 06:30:29;;;;;;;5.95;3.42;;;9.80;99.90;;;;;;5042879;28;19920;-64
2022/10/08 06:32:54;;;;;;;;;;;9.70;99.90;;;;;;5039800;28;20053;-63
2022/10/08 06:35:20;;;;;;;9.40;4.00;;;9.80;99.90;;;;;;5044710;28;20011;-66
2022/10/08 06:37:48;;;;;;;;;;;9.80;99.90;;;;;;5043698;28;20069;-65
2022/10/08 06:40:14;;;;;;;8.25;3.50;;;9.80;99.90;;;;;;5046700;28;19924;-66
2022/10/08 06:42:40;;;;;;;;;;;9.80;99.90;;;;;;5044474;28;20462;-64
2022/10/08 06:45:06;;;;;;;7.68;3.45;;;9.80;99.90;;;;;;5043567;28;20011;-64
2022/10/08 06:47:31;;;;;;;7.55;3.20;;;9.80;99.90;;;;;;5041499;28;20102;-67
2022/10/08 06:49:57;;;;;;;;;;;9.80;99.90;;;;;;5042727;28;20036;-66
2022/10/08 06:52:23;;;;;;;8.98;2.95;;;9.80;99.90;;;;;;5033749;28;19927;-65
2022/10/08 06:54:49;;;;;;;;;;;9.80;99.90;;;;;;5040458;28;20545;-65
2022/10/08 06:57:15;;;;;;;7.15;2.70;;;9.70;99.90;;;;;;5038075;28;19920;-67
2022/10/08 06:59:40;;;;;;;;;;;9.70;99.90;;;;;;5041552;28;20068;-66
2022/10/08 07:02:09;;;;;;;2.60;2.10;;;9.70;99.90;;;;;;5041791;28;20400;-65
2022/10/08 07:04:34;;;;;;;3.92;2.00;;;9.70;99.90;;;;;;5041842;28;20061;-65
2022/10/08 07:07:00;;;;;;;;;;;9.70;99.90;;;;;;5037821;28;20303;-67
2022/10/08 07:09:25;;;;;;;3.10;1.92;;;9.60;99.90;;;;;;5043616;28;20007;-65
2022/10/08 07:11:51;;;;;;;;;;;9.60;99.90;;;;;;5037671;28;20037;-66
2022/10/08 07:14:16;;;;;;;2.28;1.48;;;9.60;99.90;;;;;;5034620;28;19916;-65
2022/10/08 07:16:42;;;;;;;1.70;1.15;;;9.60;99.90;;;;;;5038442;28;20151;-67
2022/10/08 07:19:08;;;;;;;;;;;9.60;99.90;;;;;;5043776;28;20045;-66
2022/10/08 07:21:33;;;;;;;2.15;1.20;;;9.60;99.90;;;;;;5043419;28;19917;-67
2022/10/08 07:24:00;;;;;;;;;;;9.60;99.90;;;;;;5042153;28;20043;-67
2022/10/08 07:26:28;;;;;;;2.40;1.35;;;9.60;99.90;;;;;;5039391;28;19929;-66
2022/10/08 07:28:57;;;;;;;1.38;0.82;;;9.70;99.90;;;;;;5040896;28;20041;-67
2022/10/08 07:31:28;;;;;;;2.25;1.33;;;9.70;99.90;;;;;;5039848;28;20059;-67
2022/10/08 07:33:58;;;;;;;2.72;1.20;;;9.70;99.90;;;;;;5036053;28;20037;-67
2022/10/08 07:36:25;;;;;;;1.60;1.02;;;9.80;99.90;;;;;;5038389;28;20045;-66
2022/10/08 07:38:59;;;;;;;1.65;1.05;;;9.80;99.90;;;;;;5043658;28;20040;-66
2022/10/08 07:41:26;;;;;;;1.10;1.00;;;9.80;99.90;;;;;;5039776;28;20041;-66
2022/10/08 07:43:54;;;;;;;4.20;1.30;;;9.90;99.90;;;;;;5043573;28;20041;-68
2022/10/08 07:46:20;;;;;;;3.25;0.93;;;9.80;99.90;;;;;;5041494;28;20037;-68
2022/10/08 07:48:46;;;;;;;1.45;0.80;;;9.80;99.90;;;;;;5047812;28;20522;-67
2022/10/08 07:51:14;;;;;;;;;;;9.80;99.90;;;;;;5049706;28;20041;-67
2022/10/08 07:53:40;;;;;;;0.90;0.73;;;9.90;99.90;;;;;;5040041;28;19920;-65
2022/10/08 07:56:07;;;;;;;1.45;0.65;;;9.90;99.90;;;;;;5039655;28;20051;-66
2022/10/08 07:58:34;;;;;;;4.28;0.63;;;9.90;99.90;;;;;;5060257;28;20033;-67
2022/10/08 08:01:04;;;;;;;1.00;0.70;;;9.90;99.90;;;;;;5045579;28;20068;-67
2022/10/08 08:03:30;;;;;;;2.78;0.70;;;10.00;99.90;;;;;;5042240;28;20029;-68
2022/10/08 08:06:03;;;;;;;2.00;0.60;;;10.10;99.90;;;;;;5045817;28;20540;-66
2022/10/08 08:08:28;;;;;;;3.05;0.55;;;10.20;99.90;;;;;;5039666;28;20057;-66
2022/10/08 08:10:57;;;;;;;;;;;10.30;99.90;;;;;;5046010;28;20822;-68
2022/10/08 08:13:23;;;;;;;1.35;0.70;;;10.30;99.90;;;;;;5039744;28;19920;-66
2022/10/08 08:15:58;;;;;;;;;;;10.30;99.90;;;;;;5039973;28;20074;-67
2022/10/08 08:18:28;;;;;;;2.88;0.57;;;10.30;99.90;;;;;;5035267;28;19921;-68
2022/10/08 08:21:01;;;;;;;2.72;0.63;;;10.30;99.90;;;;;;5045067;28;20048;-66
2022/10/08 08:23:29;;;;;;;1.98;0.52;;;10.30;99.90;;;;;;5040933;28;20441;-66
2022/10/08 08:25:55;;;;;;;1.20;0.60;;;10.30;99.90;;;;;;5038526;28;20227;-66
2022/10/08 08:28:22;;;;;;;;;;;10.30;99.90;;;;;;5040313;28;20052;-67
2022/10/08 08:30:48;;;;;;;1.52;1.08;;;10.30;99.90;;;;;;5044709;28;19948;-67
2022/10/08 08:33:13;;;;;;;;;;;10.20;99.90;;;;;;5036615;28;20041;-66
2022/10/08 08:35:39;;;;;;;1.30;1.00;;;10.20;99.90;;;;;;5042180;28;19995;-65
2022/10/08 08:38:05;;;;;;;;;;;10.20;99.90;;;;;;5045749;28;20029;-67
2022/10/08 08:40:30;;;;;;;1.08;0.68;;;10.10;99.90;;;;;;5045729;28;19920;-66
2022/10/08 08:42:56;;;;;;;;;;;10.10;99.90;;;;;;5041483;28;20041;-68
2022/10/08 08:45:26;;;;;;;0.55;0.40;;;10.10;99.90;;;;;;5046785;28;19927;-66
2022/10/08 08:48:04;;;;;;;0.80;0.60;;;10.10;99.90;;;;;;5042654;28;20049;-68
2022/10/08 08:50:36;;;;;;;1.73;0.70;;;10.20;99.90;;;;;;5040243;28;20090;-64
2022/10/08 08:53:02;;;;;;;0.40;0.40;;;10.30;99.90;;;;;;5043120;28;20048;-66
2022/10/08 08:55:44;;;;;;;0.52;0.50;;;10.40;99.90;;;;;;5045209;28;20469;-68
2022/10/08 08:58:34;;;;;;;0.95;0.70;;;10.40;99.90;;;;;;5040010;28;20044;-66
2022/10/08 09:01:08;;;;;;;2.05;1.05;;;10.40;99.90;;;;;;5043389;28;20083;-66
2022/10/08 09:03:34;;;;;;;1.40;0.90;;;10.30;99.90;;;;;;5044748;28;20048;-66
2022/10/08 09:06:04;;;;;;;;;;;10.40;99.90;;;;;;5039993;28;20516;-66
2022/10/08 09:08:34;;;;;;;4.95;2.25;;;10.30;99.90;;;;;;5041097;28;19974;-67
2022/10/08 09:11:02;;;;;;;5.78;2.50;;;10.30;99.90;;;;;;5046232;28;20036;-67
2022/10/08 09:13:34;;;;;;;7.25;3.10;;;10.30;99.90;;;;;;5045230;28;20041;-67
2022/10/08 09:16:01;;;;;;;9.05;3.50;;;10.30;99.90;;;;;;5046491;28;20052;-66
2022/10/08 09:18:26;;;;;;;8.18;4.10;;;10.30;99.90;;;;;;5045947;28;20041;-67
2022/10/08 09:20:52;;;;;;;;;;;10.30;99.90;;;;;;5043172;28;20080;-67
2022/10/08 09:23:20;;;;;;;10.35;3.70;;;10.40;99.90;;;;;;5044679;28;20300;-68
2022/10/08 09:26:16;;;;;;;11.23;4.65;;;10.40;99.90;;;;;;5042035;28;20602;-68
2022/10/08 09:28:54;;;;;;;7.85;4.05;;;10.40;99.90;;;;;;5028817;28;20092;-67
2022/10/08 09:31:47;;;;;;;11.63;4.60;;;10.30;99.90;;;;;;5044088;28;20037;-67
2022/10/08 09:34:14;;;;;;;12.32;5.22;;;10.40;99.90;;;;;;5041020;28;20125;-68
2022/10/08 09:36:53;;;;;;;10.95;5.63;;;10.40;99.90;;;;;;5040063;28;20406;-67
2022/10/08 09:39:23;;;;;;;9.52;4.30;;;10.40;99.90;;;;;;5037681;28;20047;-67
2022/10/08 09:42:06;;;;;;;11.05;4.97;;;10.50;99.90;;;;;;5040293;28;20033;-67
2022/10/08 09:44:45;;;;;;;12.00;4.50;;;10.60;99.90;;;;;;5043087;28;20041;-69
2022/10/08 09:47:22;;;;;;;13.07;4.72;;;10.60;99.90;;;;;;5042227;28;20045;-67
2022/10/08 09:50:18;;;;;;;9.80;3.88;;;10.60;99.90;;;;;;5040894;28;20052;-67
2022/10/08 09:52:49;;;;;;;10.57;4.60;;;10.70;99.90;;;;;;5043688;28;20061;-67
2022/10/08 09:55:14;;;;;;;11.13;4.13;;;10.80;99.90;;;;;;5043323;28;20041;-67
2022/10/08 09:57:42;;;;;;;;;;;11.10;99.90;;;;;;5039757;28;20646;-67
2022/10/08 10:00:34;;;;;;;13.27;4.25;;;11.10;99.90;;;;;;5036796;28;20146;-66
2022/10/08 10:03:01;;;;;;;12.70;4.65;;;11.10;99.90;;;;;;5036722;28;20041;-66
2022/10/08 10:05:33;;;;;;;12.07;4.75;;;11.20;99.90;;;;;;5036324;28;20041;-68
2022/10/08 10:07:59;;;;;;;18.13;5.75;;;11.20;99.90;;;;;;5042809;28;20095;-66
2022/10/08 10:10:27;;;;;;;;;;;11.40;99.90;;;;;;5042374;28;20532;-67
2022/10/08 10:13:09;;;;;;;11.35;4.35;;;11.40;99.90;;;;;;5037149;28;19920;-67
2022/10/08 10:16:00;;;;;;;13.75;5.22;;;11.60;99.90;;;;;;5039437;28;20397;-66
2022/10/08 10:19:07;;;;;;;10.88;4.65;;;11.60;99.90;;;;;;5037425;28;20091;-69
2022/10/08 10:21:39;;;;;;;11.88;4.72;;;11.70;99.90;;;;;;5038277;28;20579;-68
2022/10/08 10:24:04;;;;;;;13.45;5.43;;;11.60;99.90;;;;;;5039340;28;20524;-67
2022/10/08 10:26:33;;;;;;;;;;;11.60;99.90;;;;;;5038115;28;20040;-66
2022/10/08 10:29:33;;;;;;;11.68;4.55;;;11.80;99.90;;;;;;5043808;28;19921;-70
2022/10/08 10:32:07;;;;;;;16.02;5.07;;;12.10;99.90;;;;;;5039256;28;20043;-67
2022/10/08 10:34:37;;;;;;;14.88;4.93;;;12.10;99.90;;;;;;5034157;28;20516;-67
2022/10/08 10:37:25;;;;;;;10.57;3.83;;;12.40;99.90;;;;;;5038517;28;20729;-65
2022/10/08 10:40:19;;;;;;;10.02;3.67;;;12.50;99.90;;;;;;5029136;28;20049;-66
2022/10/08 10:43:12;;;;;;;9.73;3.03;;;12.80;99.90;;;;;;5035351;28;20099;-65
2022/10/08 10:45:40;;;;;;;10.63;3.35;;;12.80;99.90;;;;;;5031335;28;20129;-66
2022/10/08 10:48:08;;;;;;;6.93;2.97;;;12.80;99.90;;;;;;5038054;28;20044;-66
2022/10/08 10:50:33;;;;;;;11.65;3.00;;;12.70;99.90;;;;;;5028058;28;20051;-65
2022/10/08 10:52:59;;;;;;;;;;;12.60;99.90;;;;;;5032079;28;20705;-66
2022/10/08 10:55:37;;;;;;;6.78;2.70;;;12.60;99.90;;;;;;5029885;28;19925;-66
2022/10/08 10:58:09;;;;;;;13.48;3.15;;;12.60;99.90;;;;;;5037408;28;20033;-67
2022/10/08 11:01:08;;;;;;;8.38;3.40;;;12.40;99.90;;;;;;5030265;28;21668;-66
2022/10/08 11:03:34;;;;;;;8.43;3.40;;;12.20;99.90;;;;;;5010917;28;20118;-66
2022/10/08 11:06:09;;;;;;;;;;;12.20;99.90;;;;;;5022833;28;20132;-65
2022/10/08 11:08:54;;;;;;;11.45;3.83;;;12.30;99.90;;;;;;5021988;28;19925;-66
2022/10/08 11:11:40;;;;;;;19.30;4.05;;;12.30;99.90;;;;;;5014234;28;20046;-66
2022/10/08 11:14:30;;;;;;;8.85;3.70;;;12.10;99.90;;;;;;5013324;28;20050;-66
2022/10/08 11:17:16;;;;;;;15.00;4.35;;;12.00;99.90;;;;;;5021248;28;20473;-66
2022/10/08 11:19:51;;;;;;;15.50;3.53;;;12.10;99.90;;;;;;5006890;28;20088;-66
2022/10/08 11:22:39;;;;;;;8.52;3.60;;;12.10;99.90;;;;;;5020371;28;20180;-65
2022/10/08 11:25:38;;;;;;;6.72;3.38;;;12.30;99.90;;;;;;5014770;28;20497;-66
2022/10/08 11:28:12;;;;;;;8.85;4.13;;;12.40;99.90;;;;;;5018367;28;20050;-67
2022/10/08 11:30:56;;;;;;;10.95;3.35;;;12.50;99.90;;;;;;5005620;28;20093;-67
2022/10/08 11:33:22;;;;;;;13.15;3.65;;;12.40;99.90;;;;;;5005340;28;20505;-68
2022/10/08 11:36:06;;;;;;;7.47;3.45;;;12.20;99.90;;;;;;5014851;28;20109;-66
2022/10/08 11:38:47;;;;;;;9.77;3.95;;;12.10;99.90;;;;;;5017906;28;20727;-66
2022/10/08 11:41:21;;;;;;;7.75;4.55;;;12.10;99.90;;;;;;5014922;28;20037;-67
2022/10/08 11:44:01;;;;;;;10.23;3.85;;;12.10;99.90;;;;;;5015199;28;20057;-67
2022/10/08 11:46:29;;;;;;;9.73;3.83;;;12.40;99.90;;;;;;5014372;28;20107;-68
2022/10/08 11:49:02;;;;;;;11.40;3.50;;;12.60;99.90;;;;;;5011891;28;20052;-67
2022/10/08 11:51:31;;;;;;;13.07;3.90;;;12.90;99.90;;;;;;5017239;28;20041;-67
2022/10/08 11:54:33;;;;;;;12.70;3.75;;;13.00;99.90;;;;;;5015268;28;20034;-66
2022/10/08 11:57:19;;;;;;;10.82;4.20;;;13.00;99.90;;;;;;5016262;28;20049;-67
2022/10/08 12:00:00;;;;;;;10.90;4.50;;;12.80;99.90;;;;;;5017089;28;20034;-67
2022/10/08 12:02:39;;;;;;;6.90;3.58;;;12.70;99.90;;;;;;5018599;28;20064;-66
2022/10/08 12:05:24;;;;;;;9.00;3.35;;;12.70;99.90;;;;;;5015934;28;20041;-67
2022/10/08 12:07:55;;;;;;;8.55;3.78;;;12.70;99.90;;;;;;5020645;28;20145;-66
2022/10/08 12:10:29;;;;;;;11.98;3.80;;;12.70;99.90;;;;;;5010147;28;20552;-67
2022/10/08 12:12:59;;;;;;;11.70;4.35;;;12.50;99.90;;;;;;5016924;28;20049;-66
2022/10/08 12:15:26;;;;;;;8.10;3.53;;;12.40;99.90;;;;;;5019611;28;20045;-67
2022/10/08 12:17:58;;;;;;;9.57;3.55;;;12.30;99.90;;;;;;5025005;28;20050;-66
2022/10/08 12:20:26;;;;;;;12.68;4.03;;;12.20;99.90;;;;;;5016851;28;20126;-68
2022/10/08 12:23:02;;;;;;;7.90;3.83;;;12.10;99.90;;;;;;5022621;28;20045;-67
2022/10/08 12:25:45;;;;;;;13.02;4.18;;;11.90;99.90;;;;;;5017262;28;20052;-67
2022/10/08 12:28:20;;;;;;;12.07;3.47;;;11.80;99.90;;;;;;5015201;28;20053;-68
2022/10/08 12:30:57;;;;;;;7.65;3.50;;;11.40;99.90;;;;;;5021736;28;20748;-69
2022/10/08 12:33:24;;;;;;;10.80;3.35;;;11.20;99.90;;;;;;5021099;28;20041;-69
2022/10/08 12:36:04;;;;;;;10.43;3.30;;;11.10;99.90;;;;;;5017755;28;20457;-68
2022/10/08 12:38:40;;;;;;;7.97;3.10;;;11.00;99.90;;;;;;5014962;28;20542;-68
2022/10/08 12:41:25;;;;;;;13.60;4.30;;;10.80;99.90;;;;;;5017066;28;20038;-67
2022/10/08 12:44:07;;;;;;;11.60;5.05;;;10.90;99.90;;;;;;5017726;28;20099;-68
2022/10/08 12:46:57;;;;;;;6.57;3.28;;;10.90;99.90;;;;;;5019047;28;20295;-66
2022/10/08 12:49:45;;;;;;;5.90;2.90;;;10.90;99.90;;;;;;5011427;28;20046;-68
2022/10/08 12:52:16;;;;;;;5.47;2.95;;;10.90;99.90;;;;;;5018544;28;20041;-68
2022/10/08 12:54:52;;;;;;;5.25;2.65;;;10.90;99.90;;;;;;5017603;28;20061;-68
2022/10/08 12:57:33;;;;;;;9.10;2.47;;;10.80;99.90;;;;;;5015958;28;20045;-67
2022/10/08 13:00:04;;;;;;;5.60;3.47;;;10.80;99.90;;;;;;5022532;28;20129;-67
2022/10/08 13:02:40;;;;;;;4.93;2.72;;;11.00;99.90;;;;;;5014428;28;20045;-68
2022/10/08 13:05:46;;;;;;;7.20;2.70;;;11.10;99.90;;;;;;5012487;28;20041;-67
2022/10/08 13:08:30;;;;;;;8.25;2.45;;;11.30;99.90;;;;;;4979885;28;20046;-66
2022/10/08 13:10:57;;;;;;;6.70;2.78;;;11.40;99.90;;;;;;4977760;28;20884;-68
2022/10/08 13:13:38;;;;;;;5.68;2.88;;;11.50;99.90;;;;;;5007292;28;20501;-67
2022/10/08 13:16:09;;;;;;;8.68;3.25;;;11.50;99.90;;;;;;5007669;28;20037;-67
2022/10/08 13:18:37;;;;;;;8.82;3.47;;;11.50;99.90;;;;;;5019791;28;20152;-67
2022/10/08 13:21:06;;;;;;;7.32;2.88;;;11.60;99.90;;;;;;5013201;28;20509;-67
2022/10/08 13:23:42;;;;;;;7.47;2.60;;;11.60;99.90;;;;;;5022551;28;20045;-67
2022/10/08 13:26:47;;;;;;;7.53;2.78;;;11.70;99.90;;;;;;5017692;28;20505;-67
2022/10/08 13:29:17;;;;;;;6.80;3.10;;;11.70;99.90;;;;;;5017118;28;20722;-67